Aérodrome :
LOGIN :

S'inscrire | Disclaimer

   EN    FR    IT 

 










Légende :    VFR   VFR Marginal   IFR   IFR Intensif   IFR Très Intensif
Visi : 
Plafond : 
>= 8 km
>= 3000ft
5 à 8 km
1000 à 3000 ft
1500m à 5 km
500 à 1000 ft
800 à 1500m
200 à 500 ft
< 800m
< 200 ft
Symboles :   Orages  Brouillard  Fortes neiges  Fortes précipitations  Vent > 20 kt
SIGMETs :   Divers  Orages  Givrage  Turbulence  Onde Orograph.  Cendres Volcan.







- Altitude de l'aérodrome : 245 ft
- Code IATA : BIQ
- Voir les cartes d'approche


LFBZ - Biarritz

DERNIER METAR :
  • 291730Z AUTO 18009G21KT 130V260 CAVOK 19/05 Q1007 NOSIG

METARs EXPIRÉS :
  • 291700Z AUTO 18010KT 140V230 CAVOK 20/05 Q1007 NOSIG
  • 291630Z AUTO 17011KT 130V280 CAVOK 20/05 Q1008 NOSIG
  • 291600Z AUTO 17009KT 100V230 CAVOK 20/06 Q1008 NOSIG
  • 291530Z AUTO 18011KT 130V250 CAVOK 19/04 Q1008 NOSIG
  • 291500Z AUTO 18011G21KT 120V250 CAVOK 20/05 Q1008 NOSIG

TAF TAF LFBZ
Valide du 29 à 18h jusqu'au 30 à 18h UTC


291700Z 2918/3018 18011KT CAVOK
BECMG 2920/2922 18015G25KT
BECMG 3008/3010 BKN045
BECMG 3011/3013 27015G25KT
TEMPO 3010/3018 27020G35KT 4000 SHRA BKN025TCU
PROB40
TEMPO 3011/3015 27025G50KT 2000 TSRA BKN010 BKN025CB
Pas de NOTAMs connus pour ce terrain.



MET'MAP, la Météo Aéronautique d'un coup d'oeil ! - Copyright ORBIFLY Décembre 2007 - Disclaimer

ORBIFLY MET'MAP TEAM :

Programmation & Développement : Alexandra Zaïnal
Conception & Développement : Baudouin d'Aumeries
Co-Programmation & Développement : Marc-Olivier Méhu
Soutien technique & logistique : Manuel Goepfert

Contact : metmap@orbifly.com




SOURCES & CREDITS :

   NOAA